Roddickton, Canada
Current Conditions -  °F | °C
As of 8:00 PM on Thursday 20 Nov 2014 (Local Time) from CYAY Reporting Station
Light Snow Light Snow  
Wind Chill: 15°   Ceiling: 3500
Heat Index: 25°   Visibility: 9mi
Dew Point: 25°   Wind: 10mph
Humidity: 100%   Direction: 170°S
Pressure: 29.9"   Gusts: NA
Location:  50.85°N, 56.12°W
Report Text: CYAY 202300Z AUTO 17009KT 9SM -SN BKN035 OVC044 M04/M04 A2990 RMK SLP128
Loading
Personal Weather Stations






























Interactive Weather Map New forecast layout! Learn more

10-Day Weather Forecast

Advertisements
Track Severe Weather on mobile